Time;durP1;ratioP1;P1;durP2;ratioP2;P2;SDS_P1;SDS_P2;PMS_P1;PMS_P2;Temp;Humidity;BMP_temperature;BMP_pressure;BME280_temperature;BME280_humidity;BME280_pressure;Samples;Min_cycle;Max_cycle;Signal;HPM_P1;HPM_P2
2021/08/19 00:01:40;;;;;;;5.68;4.05;;;;;;;;;;5114444;28;20081;-61
2021/08/19 00:04:06;;;;;;;6.35;4.22;;;;;;;;;;5114308;28;20038;-61
2021/08/19 00:06:32;;;;;;;4.20;3.72;;;;;;;;;;5113798;28;20118;-61
2021/08/19 00:08:57;;;;;;;5.13;3.50;;;;;;;;;;5114894;28;20051;-61
2021/08/19 00:11:22;;;;;;;4.05;3.67;;;;;;;;;;5096378;28;20044;-61
2021/08/19 00:13:48;;;;;;;4.60;4.20;;;;;;;;;;5114220;28;20027;-61
2021/08/19 00:16:13;;;;;;;4.53;4.10;;;;;;;;;;5096099;28;20481;-69
2021/08/19 00:18:39;;;;;;;5.15;3.72;;;;;;;;;;5096052;28;20019;-69
2021/08/19 00:21:05;;;;;;;4.15;3.78;;;;;;;;;;5114210;28;20036;-70
2021/08/19 00:23:31;;;;;;;6.35;3.88;;;;;;;;;;5114211;28;20047;-70
2021/08/19 00:25:56;;;;;;;4.22;3.55;;;;;;;;;;5096002;28;20494;-69
2021/08/19 00:28:22;;;;;;;3.67;3.38;;;;;;;;;;5095716;28;20108;-69
2021/08/19 00:30:48;;;;;;;4.30;3.55;;;;;;;;;;5113984;28;20039;-69
2021/08/19 00:33:13;;;;;;;3.92;3.53;;;;;;;;;;5095852;28;20355;-61
2021/08/19 00:35:38;;;;;;;4.82;3.55;;;;;;;;;;5114005;28;20035;-61
2021/08/19 00:38:05;;;;;;;4.32;3.90;;;;;;;;;;5114068;28;20035;-61
2021/08/19 00:40:31;;;;;;;5.68;3.80;;;;;;;;;;5113479;28;20043;-61
2021/08/19 00:42:58;;;;;;;3.80;3.53;;;;;;;;;;5095524;28;20080;-61
2021/08/19 00:45:25;;;;;;;3.90;3.33;;;;;;;;;;5113779;28;20459;-61
2021/08/19 00:47:52;;;;;;;5.78;3.78;;;;;;;;;;5113895;28;20019;-61
2021/08/19 00:50:17;;;;;;;4.55;3.75;;;;;;;;;;5095520;28;20043;-61
2021/08/19 00:52:43;;;;;;;3.80;3.50;;;;;;;;;;5113937;28;20031;-61
2021/08/19 00:55:10;;;;;;;4.20;3.80;;;;;;;;;;5114281;28;20038;-61
2021/08/19 00:57:38;;;;;;;3.92;3.42;;;;;;;;;;5095667;28;20034;-61
2021/08/19 01:00:04;;;;;;;6.88;3.78;;;;;;;;;;5113417;28;20049;-61
2021/08/19 01:02:29;;;;;;;3.92;3.60;;;;;;;;;;5113603;28;20042;-61
2021/08/19 01:04:55;;;;;;;4.93;3.45;;;;;;;;;;5113646;28;20046;-61
2021/08/19 01:07:20;;;;;;;4.85;3.67;;;;;;;;;;5113746;28;20110;-62
2021/08/19 01:09:46;;;;;;;4.05;3.47;;;;;;;;;;5095359;28;20035;-61
2021/08/19 01:12:12;;;;;;;4.45;3.38;;;;;;;;;;5113465;28;20439;-61
2021/08/19 01:14:38;;;;;;;4.60;3.53;;;;;;;;;;5113632;28;20039;-61
2021/08/19 01:17:06;;;;;;;4.13;3.53;;;;;;;;;;5113722;28;20028;-61
2021/08/19 01:19:32;;;;;;;3.90;3.38;;;;;;;;;;5113309;28;20542;-61
2021/08/19 01:21:57;;;;;;;3.40;3.13;;;;;;;;;;5113311;28;20118;-62
2021/08/19 01:24:23;;;;;;;3.97;3.33;;;;;;;;;;5113360;28;20389;-61
2021/08/19 01:26:48;;;;;;;5.68;4.10;;;;;;;;;;5112845;28;20483;-61
2021/08/19 01:29:14;;;;;;;4.60;3.72;;;;;;;;;;5113757;28;20116;-61
2021/08/19 01:31:40;;;;;;;4.70;3.38;;;;;;;;;;5113517;28;20039;-61
2021/08/19 01:34:06;;;;;;;3.53;3.22;;;;;;;;;;5113424;28;20036;-61
2021/08/19 01:36:31;;;;;;;4.55;3.50;;;;;;;;;;5113291;28;20118;-61
2021/08/19 01:38:57;;;;;;;3.75;3.38;;;;;;;;;;5113222;28;20101;-61
2021/08/19 01:41:23;;;;;;;3.67;3.38;;;;;;;;;;5113423;28;20047;-61
2021/08/19 01:43:49;;;;;;;4.22;3.63;;;;;;;;;;5113162;28;20027;-61
2021/08/19 01:46:15;;;;;;;3.90;3.55;;;;;;;;;;5094791;28;20035;-61
2021/08/19 01:48:46;;;;;;;3.63;3.08;;;;;;;;;;5113423;28;20035;-61
2021/08/19 01:51:21;;;;;;;3.50;3.20;;;;;;;;;;5095699;28;20067;-61
2021/08/19 01:53:48;;;;;;;3.80;3.40;;;;;;;;;;5116223;28;21328;-61
2021/08/19 01:56:14;;;;;;;5.28;3.55;;;;;;;;;;5098655;28;20032;-61
2021/08/19 01:58:40;;;;;;;4.75;3.55;;;;;;;;;;5116750;28;20028;-61
2021/08/19 02:01:05;;;;;;;3.83;3.08;;;;;;;;;;5116775;28;20431;-61
2021/08/19 02:03:31;;;;;;;4.25;3.33;;;;;;;;;;5098335;28;20205;-61
2021/08/19 02:05:57;;;;;;;3.70;3.28;;;;;;;;;;5116709;28;20035;-61
2021/08/19 02:08:22;;;;;;;3.35;3.05;;;;;;;;;;5116609;28;20031;-61
2021/08/19 02:10:48;;;;;;;3.47;3.17;;;;;;;;;;5116658;28;20478;-61
2021/08/19 02:13:13;;;;;;;4.40;3.55;;;;;;;;;;5116580;28;20042;-61
2021/08/19 02:15:39;;;;;;;3.88;3.55;;;;;;;;;;5116327;28;20040;-61
2021/08/19 02:18:05;;;;;;;3.90;3.47;;;;;;;;;;5116448;28;20035;-61
2021/08/19 02:20:30;;;;;;;3.63;3.10;;;;;;;;;;5116566;28;20036;-61
2021/08/19 02:22:59;;;;;;;3.28;3.03;;;;;;;;;;5116170;28;20045;-61
2021/08/19 02:25:25;;;;;;;2.80;2.60;;;;;;;;;;5116173;28;20035;-61
2021/08/19 02:27:51;;;;;;;3.72;3.00;;;;;;;;;;5115704;28;20036;-61
2021/08/19 02:30:16;;;;;;;3.80;3.33;;;;;;;;;;5116421;28;20480;-61
2021/08/19 02:32:42;;;;;;;5.05;3.30;;;;;;;;;;5116306;28;20041;-61
2021/08/19 02:35:07;;;;;;;3.83;3.53;;;;;;;;;;5116175;28;20396;-61
2021/08/19 02:37:34;;;;;;;4.55;3.08;;;;;;;;;;5098168;28;20032;-61
2021/08/19 02:39:59;;;;;;;3.60;3.30;;;;;;;;;;5116140;28;20044;-61
2021/08/19 02:42:25;;;;;;;3.40;3.10;;;;;;;;;;5116250;28;20043;-61
2021/08/19 02:44:50;;;;;;;3.40;3.10;;;;;;;;;;5115806;28;20024;-61
2021/08/19 02:47:16;;;;;;;2.88;2.67;;;;;;;;;;5115789;28;20398;-61
2021/08/19 02:49:41;;;;;;;4.35;3.47;;;;;;;;;;5115328;28;20055;-62
2021/08/19 02:52:07;;;;;;;5.93;3.40;;;;;;;;;;5115748;28;20469;-62
2021/08/19 02:54:32;;;;;;;4.63;3.25;;;;;;;;;;5115653;28;20034;-61
2021/08/19 02:56:58;;;;;;;3.92;3.15;;;;;;;;;;5115729;28;20035;-61
2021/08/19 02:59:23;;;;;;;3.80;3.15;;;;;;;;;;5097457;28;20016;-61
2021/08/19 03:01:49;;;;;;;3.35;3.05;;;;;;;;;;5115450;28;20098;-62
2021/08/19 03:04:14;;;;;;;4.35;3.13;;;;;;;;;;5115841;28;20058;-61
2021/08/19 03:06:40;;;;;;;3.28;2.97;;;;;;;;;;5115547;28;20145;-61
2021/08/19 03:09:05;;;;;;;3.42;2.83;;;;;;;;;;5115638;28;20074;-61
2021/08/19 03:11:30;;;;;;;4.10;3.63;;;;;;;;;;5115592;28;20047;-61
2021/08/19 03:13:56;;;;;;;7.03;3.50;;;;;;;;;;5115731;28;20026;-61
2021/08/19 03:16:21;;;;;;;5.38;3.25;;;;;;;;;;5115517;28;20024;-61
2021/08/19 03:18:47;;;;;;;5.53;3.25;;;;;;;;;;5115261;28;20032;-61
2021/08/19 03:21:12;;;;;;;4.32;3.95;;;;;;;;;;5115062;28;20040;-61
2021/08/19 03:23:38;;;;;;;10.30;4.97;;;;;;;;;;5115254;28;20473;-61
2021/08/19 03:26:08;;;;;;;9.45;4.93;;;;;;;;;;5097214;28;20039;-61
2021/08/19 03:28:33;;;;;;;5.55;3.95;;;;;;;;;;5096572;28;20454;-61
2021/08/19 03:31:00;;;;;;;4.63;3.47;;;;;;;;;;5114891;28;20168;-61
2021/08/19 03:33:25;;;;;;;5.72;3.58;;;;;;;;;;5114965;28;20062;-61
2021/08/19 03:35:51;;;;;;;5.50;3.30;;;;;;;;;;5115055;28;20063;-61
2021/08/19 03:38:16;;;;;;;4.13;2.97;;;;;;;;;;5114923;28;20032;-61
2021/08/19 03:40:42;;;;;;;5.35;3.53;;;;;;;;;;5096469;28;20043;-61
2021/08/19 03:43:08;;;;;;;3.60;3.15;;;;;;;;;;5114547;28;20028;-61
2021/08/19 03:45:33;;;;;;;4.57;3.20;;;;;;;;;;5114612;28;20082;-61
2021/08/19 03:47:58;;;;;;;4.90;3.38;;;;;;;;;;5114759;28;20032;-62
2021/08/19 03:50:24;;;;;;;3.50;3.20;;;;;;;;;;5114949;28;20028;-61
2021/08/19 03:52:50;;;;;;;8.45;4.47;;;;;;;;;;5114625;28;20020;-62
2021/08/19 03:55:16;;;;;;;7.90;4.40;;;;;;;;;;5114596;28;20035;-62
2021/08/19 03:57:41;;;;;;;3.60;3.13;;;;;;;;;;5114501;28;20106;-61
2021/08/19 04:00:07;;;;;;;3.40;2.72;;;;;;;;;;5114864;28;20482;-61
2021/08/19 04:02:39;;;;;;;4.03;3.17;;;;;;;;;;5114751;28;20035;-70
2021/08/19 04:05:05;;;;;;;3.28;2.88;;;;;;;;;;5114331;28;20039;-69
2021/08/19 04:07:30;;;;;;;3.75;2.90;;;;;;;;;;5114096;28;20018;-69
2021/08/19 04:09:56;;;;;;;3.22;2.72;;;;;;;;;;5108034;28;20491;-68
2021/08/19 04:12:22;;;;;;;3.90;3.05;;;;;;;;;;5102085;28;20359;-61
2021/08/19 04:14:48;;;;;;;3.13;2.88;;;;;;;;;;5103400;28;20062;-69
2021/08/19 04:17:13;;;;;;;9.15;6.18;;;;;;;;;;5102705;28;20023;-69
2021/08/19 04:19:39;;;;;;;7.43;3.25;;;;;;;;;;5104368;28;20035;-68
2021/08/19 04:22:04;;;;;;;3.10;2.80;;;;;;;;;;5099012;28;20463;-68
2021/08/19 04:24:30;;;;;;;3.45;2.92;;;;;;;;;;5093835;28;20035;-68
2021/08/19 04:26:55;;;;;;;3.28;2.75;;;;;;;;;;5075418;28;20067;-68
2021/08/19 04:29:21;;;;;;;3.28;2.90;;;;;;;;;;5093664;28;20055;-69
2021/08/19 04:31:46;;;;;;;2.88;2.60;;;;;;;;;;5093125;28;20039;-68
2021/08/19 04:34:12;;;;;;;4.13;3.00;;;;;;;;;;5093293;28;20036;-67
2021/08/19 04:36:37;;;;;;;4.13;3.05;;;;;;;;;;5093607;28;20063;-68
2021/08/19 04:39:03;;;;;;;3.28;3.05;;;;;;;;;;5093007;28;20367;-68
2021/08/19 04:41:29;;;;;;;4.32;2.83;;;;;;;;;;5093269;28;20394;-68
2021/08/19 04:43:55;;;;;;;2.95;2.75;;;;;;;;;;5093459;28;20123;-68
2021/08/19 04:46:20;;;;;;;3.95;2.88;;;;;;;;;;5093478;28;20573;-68
2021/08/19 04:48:46;;;;;;;4.47;2.90;;;;;;;;;;5075716;28;20709;-68
2021/08/19 04:51:11;;;;;;;3.80;2.85;;;;;;;;;;5093391;28;20066;-69
2021/08/19 04:53:37;;;;;;;3.95;3.25;;;;;;;;;;5093394;28;20050;-70
2021/08/19 04:56:02;;;;;;;3.30;3.00;;;;;;;;;;5093078;28;20036;-68
2021/08/19 04:58:28;;;;;;;4.20;3.25;;;;;;;;;;5093312;28;20044;-68
2021/08/19 05:00:54;;;;;;;5.65;3.20;;;;;;;;;;5093136;28;20385;-68
2021/08/19 05:03:20;;;;;;;3.63;3.10;;;;;;;;;;5093168;28;20040;-68
2021/08/19 05:05:45;;;;;;;4.20;3.38;;;;;;;;;;5093400;28;20028;-68
2021/08/19 05:08:11;;;;;;;8.25;3.40;;;;;;;;;;5093349;28;20054;-68
2021/08/19 05:10:36;;;;;;;3.90;3.00;;;;;;;;;;5093321;28;20066;-68
2021/08/19 05:13:02;;;;;;;5.60;3.40;;;;;;;;;;5075519;28;20089;-68
2021/08/19 05:15:27;;;;;;;5.13;3.05;;;;;;;;;;5093161;28;20036;-68
2021/08/19 05:17:53;;;;;;;6.93;3.90;;;;;;;;;;5093127;28;20064;-67
2021/08/19 05:20:18;;;;;;;4.97;4.00;;;;;;;;;;5092843;28;20470;-67
2021/08/19 05:22:44;;;;;;;4.82;3.05;;;;;;;;;;5092751;28;20029;-68
2021/08/19 05:25:10;;;;;;;3.58;3.22;;;;;;;;;;5093290;28;20024;-68
2021/08/19 05:27:35;;;;;;;3.45;3.15;;;;;;;;;;5095674;28;20028;-68
2021/08/19 05:30:01;;;;;;;4.32;3.60;;;;;;;;;;5097040;28;20343;-68
2021/08/19 05:32:26;;;;;;;4.05;3.45;;;;;;;;;;5097350;28;20047;-68
2021/08/19 05:34:52;;;;;;;3.97;3.58;;;;;;;;;;5097163;28;20036;-68
2021/08/19 05:37:17;;;;;;;3.75;3.35;;;;;;;;;;5096903;28;20040;-68
2021/08/19 05:39:43;;;;;;;4.13;3.20;;;;;;;;;;5096719;28;20024;-68
2021/08/19 05:42:08;;;;;;;6.30;3.55;;;;;;;;;;5096415;28;20062;-68
2021/08/19 05:44:34;;;;;;;4.88;3.28;;;;;;;;;;5096601;28;20028;-68
2021/08/19 05:46:59;;;;;;;4.10;3.60;;;;;;;;;;5096555;28;20039;-68
2021/08/19 05:49:25;;;;;;;5.10;3.40;;;;;;;;;;5096915;28;20070;-68
2021/08/19 05:51:50;;;;;;;3.85;3.10;;;;;;;;;;5096626;28;20032;-68
2021/08/19 05:54:17;;;;;;;4.13;3.05;;;;;;;;;;5096362;28;20031;-68
2021/08/19 05:56:42;;;;;;;3.45;3.10;;;;;;;;;;5078175;28;20043;-68
2021/08/19 05:59:08;;;;;;;3.92;3.15;;;;;;;;;;5096303;28;20024;-68
2021/08/19 06:01:33;;;;;;;4.22;3.17;;;;;;;;;;5096299;28;20406;-68
2021/08/19 06:03:59;;;;;;;6.00;3.17;;;;;;;;;;5078284;28;20105;-68
2021/08/19 06:06:24;;;;;;;3.83;2.75;;;;;;;;;;5096359;28;20046;-68
2021/08/19 06:08:49;;;;;;;3.35;3.05;;;;;;;;;;5096200;28;20034;-68
2021/08/19 06:11:15;;;;;;;3.15;2.72;;;;;;;;;;5096232;28;20040;-68
2021/08/19 06:13:40;;;;;;;3.45;2.47;;;;;;;;;;5096272;28;20031;-68
2021/08/19 06:16:06;;;;;;;4.18;2.63;;;;;;;;;;5096426;28;20028;-68
2021/08/19 06:18:31;;;;;;;2.83;2.60;;;;;;;;;;5095968;28;20031;-69
2021/08/19 06:20:57;;;;;;;3.00;2.55;;;;;;;;;;5095993;28;20036;-69
2021/08/19 06:23:22;;;;;;;6.22;2.90;;;;;;;;;;5095737;28;20367;-69
2021/08/19 06:25:48;;;;;;;2.75;2.17;;;;;;;;;;5077931;28;20036;-67
2021/08/19 06:28:13;;;;;;;2.97;2.78;;;;;;;;;;5095375;28;20079;-68
2021/08/19 06:30:39;;;;;;;3.22;2.42;;;;;;;;;;5077518;28;20047;-68
2021/08/19 06:33:04;;;;;;;3.67;2.22;;;;;;;;;;5095805;28;20047;-66
2021/08/19 06:35:30;;;;;;;5.65;2.67;;;;;;;;;;5095836;28;20036;-71
2021/08/19 06:37:56;;;;;;;2.15;2.05;;;;;;;;;;5095064;28;20036;-71
2021/08/19 06:40:22;;;;;;;3.17;2.55;;;;;;;;;;5077370;28;20481;-71
2021/08/19 06:42:47;;;;;;;3.63;2.60;;;;;;;;;;5077635;28;20035;-69
2021/08/19 06:45:13;;;;;;;2.90;2.45;;;;;;;;;;5095653;28;20082;-68
2021/08/19 06:47:39;;;;;;;2.35;2.08;;;;;;;;;;5077304;28;20032;-68
2021/08/19 06:50:05;;;;;;;2.05;1.77;;;;;;;;;;5095412;28;20082;-70
2021/08/19 06:52:30;;;;;;;2.30;2.10;;;;;;;;;;5095369;28;20374;-69
2021/08/19 06:54:59;;;;;;;2.97;1.95;;;;;;;;;;5095461;28;20036;-70
2021/08/19 06:57:25;;;;;;;3.17;2.15;;;;;;;;;;5095361;28;20032;-69
2021/08/19 06:59:50;;;;;;;2.13;1.95;;;;;;;;;;5095165;28;20539;-67
2021/08/19 07:02:16;;;;;;;2.42;2.17;;;;;;;;;;5095253;28;20032;-66
2021/08/19 07:04:41;;;;;;;1.77;1.67;;;;;;;;;;5095066;28;20035;-67
2021/08/19 07:07:06;;;;;;;2.35;2.05;;;;;;;;;;5095260;28;20047;-66
2021/08/19 07:09:32;;;;;;;3.40;2.08;;;;;;;;;;5094996;28;20036;-66
2021/08/19 07:11:58;;;;;;;2.05;1.85;;;;;;;;;;5094985;28;20118;-66
2021/08/19 07:14:24;;;;;;;2.80;2.25;;;;;;;;;;5094884;28;20067;-66
2021/08/19 07:16:49;;;;;;;2.38;1.83;;;;;;;;;;5094751;28;20082;-62
2021/08/19 07:19:14;;;;;;;2.85;2.33;;;;;;;;;;5094597;28;20043;-62
2021/08/19 07:21:41;;;;;;;2.15;1.95;;;;;;;;;;5094865;28;20035;-62
2021/08/19 07:24:06;;;;;;;1.30;1.23;;;;;;;;;;5094562;28;20093;-62
2021/08/19 07:26:32;;;;;;;3.15;2.10;;;;;;;;;;5076614;28;20020;-63
2021/08/19 07:28:58;;;;;;;2.65;2.05;;;;;;;;;;5094512;28;20044;-62
2021/08/19 07:31:24;;;;;;;2.75;2.10;;;;;;;;;;5094593;28;20402;-63
2021/08/19 07:33:49;;;;;;;4.13;2.03;;;;;;;;;;5094601;28;20039;-62
2021/08/19 07:36:15;;;;;;;2.55;2.35;;;;;;;;;;5094744;28;20532;-62
2021/08/19 07:38:40;;;;;;;2.72;2.25;;;;;;;;;;5094650;28;20035;-62
2021/08/19 07:41:06;;;;;;;2.45;2.17;;;;;;;;;;5094682;28;20401;-62
2021/08/19 07:43:32;;;;;;;1.92;1.75;;;;;;;;;;5094303;28;20474;-62
2021/08/19 07:45:59;;;;;;;1.98;1.88;;;;;;;;;;5094365;28;20055;-62
2021/08/19 07:48:24;;;;;;;3.30;2.25;;;;;;;;;;5094304;28;20032;-62
2021/08/19 07:50:50;;;;;;;2.10;1.90;;;;;;;;;;5093998;28;20475;-62
2021/08/19 07:53:16;;;;;;;1.58;1.48;;;;;;;;;;5094381;28;20036;-62
2021/08/19 07:55:41;;;;;;;1.92;1.70;;;;;;;;;;5101401;28;20066;-63
2021/08/19 07:58:07;;;;;;;1.70;1.60;;;;;;;;;;5114261;28;20454;-66
2021/08/19 08:00:33;;;;;;;2.67;1.98;;;;;;;;;;5114595;28;20023;-67
2021/08/19 08:02:59;;;;;;;1.90;1.77;;;;;;;;;;5114221;28;20042;-67
2021/08/19 08:05:25;;;;;;;2.05;1.63;;;;;;;;;;5114643;28;20020;-67
2021/08/19 08:07:52;;;;;;;1.83;1.73;;;;;;;;;;5114379;28;20054;-67
2021/08/19 08:10:17;;;;;;;2.13;1.92;;;;;;;;;;5095127;28;20035;-67
2021/08/19 08:12:43;;;;;;;2.40;2.20;;;;;;;;;;5114724;28;20028;-67
2021/08/19 08:15:10;;;;;;;2.20;2.00;;;;;;;;;;5096089;28;20035;-67
2021/08/19 08:17:36;;;;;;;2.25;2.15;;;;;;;;;;5095941;28;20366;-66
2021/08/19 08:20:02;;;;;;;1.88;1.73;;;;;;;;;;5113813;28;20036;-66
2021/08/19 08:22:27;;;;;;;2.20;2.03;;;;;;;;;;5112929;28;20050;-66
2021/08/19 08:24:53;;;;;;;2.47;2.28;;;;;;;;;;5113022;28;20031;-66
2021/08/19 08:27:18;;;;;;;2.30;2.05;;;;;;;;;;5112601;28;20027;-67
2021/08/19 08:29:44;;;;;;;1.55;1.40;;;;;;;;;;5112303;28;20032;-66
2021/08/19 08:32:10;;;;;;;3.00;2.10;;;;;;;;;;5111722;28;20063;-67
2021/08/19 08:34:36;;;;;;;2.28;1.85;;;;;;;;;;5111671;28;20081;-66
2021/08/19 08:37:02;;;;;;;1.63;1.52;;;;;;;;;;5094950;28;20413;-66
2021/08/19 08:39:29;;;;;;;2.65;1.45;;;;;;;;;;5113611;28;20044;-66
2021/08/19 08:41:54;;;;;;;2.25;1.70;;;;;;;;;;5113610;28;20031;-66
2021/08/19 08:44:20;;;;;;;1.88;1.77;;;;;;;;;;5113607;28;20089;-66
2021/08/19 08:46:46;;;;;;;1.80;1.70;;;;;;;;;;5113573;28;20023;-66
2021/08/19 08:49:13;;;;;;;1.90;1.58;;;;;;;;;;5113514;28;20115;-66
2021/08/19 08:51:38;;;;;;;2.42;2.20;;;;;;;;;;5113440;28;20032;-66
2021/08/19 08:54:04;;;;;;;2.15;2.05;;;;;;;;;;5113482;28;20065;-66
2021/08/19 08:56:29;;;;;;;4.38;1.80;;;;;;;;;;5113429;28;20477;-66
2021/08/19 08:58:58;;;;;;;2.50;1.77;;;;;;;;;;5113476;28;20478;-66
2021/08/19 09:01:23;;;;;;;2.85;1.60;;;;;;;;;;5116346;28;20019;-66
2021/08/19 09:03:49;;;;;;;1.60;1.50;;;;;;;;;;5117699;28;20485;-66
2021/08/19 09:06:33;;;;;;;2.13;1.92;;;;;;;;;;5099565;28;20451;-66
2021/08/19 09:08:58;;;;;;;3.17;1.80;;;;;;;;;;5118002;28;20149;-66
2021/08/19 09:11:24;;;;;;;2.10;1.90;;;;;;;;;;5118075;28;20122;-66
2021/08/19 09:13:49;;;;;;;1.77;1.50;;;;;;;;;;5117826;28;20043;-66
2021/08/19 09:16:16;;;;;;;2.25;2.05;;;;;;;;;;5118140;28;20034;-66
2021/08/19 09:18:42;;;;;;;2.45;2.22;;;;;;;;;;5116950;28;20034;-66
2021/08/19 09:21:17;;;;;;;4.18;2.17;;;;;;;;;;5117715;28;20027;-66
2021/08/19 09:23:43;;;;;;;2.15;1.95;;;;;;;;;;5117591;28;20040;-66
2021/08/19 09:26:09;;;;;;;2.88;1.98;;;;;;;;;;5117452;28;20062;-66
2021/08/19 09:28:35;;;;;;;2.78;2.17;;;;;;;;;;5117053;28;20035;-66
2021/08/19 09:31:04;;;;;;;2.00;1.90;;;;;;;;;;5117080;28;20043;-66
2021/08/19 09:33:31;;;;;;;2.33;1.57;;;;;;;;;;5117120;28;20439;-66
2021/08/19 09:36:00;;;;;;;1.48;1.38;;;;;;;;;;5117077;28;20802;-66
2021/08/19 09:38:34;;;;;;;2.17;1.98;;;;;;;;;;5117102;28;20089;-66
2021/08/19 09:41:05;;;;;;;1.85;1.70;;;;;;;;;;5116902;28;20040;-66
2021/08/19 09:43:37;;;;;;;2.53;1.65;;;;;;;;;;5116773;28;20397;-66
2021/08/19 09:46:02;;;;;;;2.40;1.80;;;;;;;;;;5116874;28;20040;-66
2021/08/19 09:48:28;;;;;;;1.92;1.80;;;;;;;;;;5116815;28;20138;-66
2021/08/19 09:51:09;;;;;;;1.88;1.77;;;;;;;;;;5116760;28;20047;-66
2021/08/19 09:53:40;;;;;;;1.65;1.55;;;;;;;;;;5116919;28;20059;-66
2021/08/19 09:56:09;;;;;;;2.33;2.22;;;;;;;;;;5116596;28;20036;-66
2021/08/19 09:58:34;;;;;;;1.98;1.88;;;;;;;;;;5116642;28;20024;-66
2021/08/19 10:01:00;;;;;;;2.00;1.90;;;;;;;;;;5098271;28;20036;-66
2021/08/19 10:03:26;;;;;;;3.05;1.95;;;;;;;;;;5116130;28;20032;-66
2021/08/19 10:05:52;;;;;;;0.57;0.57;;;;;;;;;;5098286;28;20452;-66
2021/08/19 10:08:17;;;;;;;3.55;1.80;;;;;;;;;;5116501;28;20028;-66
2021/08/19 10:10:44;;;;;;;2.05;1.65;;;;;;;;;;5116379;28;20035;-66
2021/08/19 10:13:11;;;;;;;2.00;1.90;;;;;;;;;;5115502;28;20036;-66
2021/08/19 10:15:36;;;;;;;1.75;1.65;;;;;;;;;;5097983;28;20031;-66
2021/08/19 10:18:04;;;;;;;2.53;1.85;;;;;;;;;;5116256;28;20035;-66
2021/08/19 10:20:36;;;;;;;1.63;1.35;;;;;;;;;;5116061;28;20035;-66
2021/08/19 10:23:02;;;;;;;2.10;1.55;;;;;;;;;;5115996;28;20027;-66
2021/08/19 10:25:28;;;;;;;2.10;1.90;;;;;;;;;;5116264;28;20020;-66
2021/08/19 10:28:12;;;;;;;2.67;1.80;;;;;;;;;;5115452;28;20039;-66
2021/08/19 10:30:45;;;;;;;2.65;1.65;;;;;;;;;;5081169;28;20488;-66
2021/08/19 10:33:30;;;;;;;2.97;1.30;;;;;;;;;;5116190;28;20058;-66
2021/08/19 10:35:56;;;;;;;2.08;1.85;;;;;;;;;;5116234;28;20043;-66
2021/08/19 10:38:25;;;;;;;1.92;1.73;;;;;;;;;;5098095;28;20034;-66
2021/08/19 10:40:51;;;;;;;3.87;1.73;;;;;;;;;;5098060;28;20058;-67
2021/08/19 10:43:30;;;;;;;1.92;1.83;;;;;;;;;;5097928;28;20465;-67
2021/08/19 10:46:07;;;;;;;2.53;1.92;;;;;;;;;;5097645;28;20378;-68
2021/08/19 10:48:53;;;;;;;5.32;1.88;;;;;;;;;;5115834;28;20033;-67
2021/08/19 10:51:20;;;;;;;3.72;1.90;;;;;;;;;;5115882;28;20145;-67
2021/08/19 10:53:46;;;;;;;1.77;1.67;;;;;;;;;;5115682;28;20445;-67
2021/08/19 10:56:11;;;;;;;1.92;1.77;;;;;;;;;;5115369;28;20128;-67
2021/08/19 10:58:38;;;;;;;2.08;1.67;;;;;;;;;;5115537;28;20070;-67
2021/08/19 11:01:13;;;;;;;2.25;1.67;;;;;;;;;;5097433;28;20110;-67
2021/08/19 11:03:38;;;;;;;2.28;1.67;;;;;;;;;;5115218;28;20043;-68
2021/08/19 11:06:06;;;;;;;1.70;1.60;;;;;;;;;;5115424;28;20362;-68
2021/08/19 11:08:51;;;;;;;1.50;1.40;;;;;;;;;;5115104;28;20034;-68
2021/08/19 11:11:26;;;;;;;1.88;1.73;;;;;;;;;;5114748;28;20040;-62
2021/08/19 11:13:59;;;;;;;1.88;1.77;;;;;;;;;;5115411;28;20046;-62
2021/08/19 11:16:25;;;;;;;1.75;1.65;;;;;;;;;;5096936;28;20043;-62
2021/08/19 11:18:50;;;;;;;1.95;1.85;;;;;;;;;;5115291;28;20038;-62
2021/08/19 11:21:16;;;;;;;1.67;1.58;;;;;;;;;;5114849;28;20042;-62
2021/08/19 11:23:43;;;;;;;3.53;1.85;;;;;;;;;;5114599;28;20031;-62
2021/08/19 11:26:08;;;;;;;1.80;1.60;;;;;;;;;;5115037;28;20470;-62
2021/08/19 11:28:35;;;;;;;1.83;1.73;;;;;;;;;;5096996;28;20122;-62
2021/08/19 11:31:08;;;;;;;1.80;1.70;;;;;;;;;;5114791;28;20489;-62
2021/08/19 11:33:33;;;;;;;1.90;1.80;;;;;;;;;;5114744;28;20405;-62
2021/08/19 11:35:59;;;;;;;2.63;1.90;;;;;;;;;;5114865;28;20039;-62
2021/08/19 11:38:26;;;;;;;2.10;1.85;;;;;;;;;;5114613;28;20043;-62
2021/08/19 11:40:53;;;;;;;1.70;1.60;;;;;;;;;;5114955;28;20028;-61
2021/08/19 11:43:28;;;;;;;2.08;1.80;;;;;;;;;;5114738;28;20043;-62
2021/08/19 11:46:14;;;;;;;1.95;1.85;;;;;;;;;;5114576;28;20539;-62
2021/08/19 11:48:50;;;;;;;4.63;1.67;;;;;;;;;;5079264;28;20551;-62
2021/08/19 11:51:36;;;;;;;2.08;1.98;;;;;;;;;;5114554;28;20040;-62
2021/08/19 11:54:03;;;;;;;1.77;1.63;;;;;;;;;;5095879;28;20047;-61
2021/08/19 11:56:30;;;;;;;2.42;2.22;;;;;;;;;;5096173;28;20035;-65
2021/08/19 11:59:06;;;;;;;2.40;2.20;;;;;;;;;;5114219;28;20032;-61
2021/08/19 12:01:32;;;;;;;3.42;2.20;;;;;;;;;;5096113;28;20044;-61
2021/08/19 12:03:58;;;;;;;2.13;2.03;;;;;;;;;;5114164;28;20550;-61
2021/08/19 12:06:24;;;;;;;2.00;1.90;;;;;;;;;;5114202;28;20477;-62
2021/08/19 12:08:49;;;;;;;2.00;1.80;;;;;;;;;;5095974;28;20038;-62
2021/08/19 12:11:17;;;;;;;2.45;2.15;;;;;;;;;;5113952;28;20123;-62
2021/08/19 12:13:42;;;;;;;2.13;1.65;;;;;;;;;;5095961;28;20074;-62
2021/08/19 12:16:08;;;;;;;2.45;2.25;;;;;;;;;;5113986;28;20039;-62
2021/08/19 12:18:34;;;;;;;3.33;1.88;;;;;;;;;;5113996;28;20088;-62
2021/08/19 12:21:14;;;;;;;2.00;1.90;;;;;;;;;;5113850;28;20481;-62
2021/08/19 12:23:39;;;;;;;2.22;2.00;;;;;;;;;;5113978;28;20122;-62
2021/08/19 12:26:09;;;;;;;2.42;1.85;;;;;;;;;;5113997;28;20449;-62
2021/08/19 12:28:35;;;;;;;1.90;1.80;;;;;;;;;;5113644;28;20073;-61
2021/08/19 12:31:03;;;;;;;2.95;1.90;;;;;;;;;;5113964;28;20076;-62
2021/08/19 12:33:32;;;;;;;2.15;1.75;;;;;;;;;;5113887;28;20028;-61
2021/08/19 12:36:17;;;;;;;2.50;2.20;;;;;;;;;;5113523;28;20047;-62
2021/08/19 12:38:44;;;;;;;1.88;1.77;;;;;;;;;;5113819;28;20040;-61
2021/08/19 12:41:17;;;;;;;1.95;1.73;;;;;;;;;;5107564;28;20027;-66
2021/08/19 12:43:44;;;;;;;2.00;1.90;;;;;;;;;;5113773;28;20581;-66
2021/08/19 12:46:10;;;;;;;2.03;1.88;;;;;;;;;;5112668;28;20027;-61
2021/08/19 12:48:36;;;;;;;1.95;1.85;;;;;;;;;;5104948;28;20032;-66
2021/08/19 12:51:21;;;;;;;2.58;1.92;;;;;;;;;;5097246;28;20024;-66
2021/08/19 12:54:05;;;;;;;2.20;2.10;;;;;;;;;;5093480;28;20131;-66
2021/08/19 12:56:31;;;;;;;1.63;1.52;;;;;;;;;;5113733;28;20039;-66
2021/08/19 12:58:57;;;;;;;1.90;1.80;;;;;;;;;;5104308;28;20389;-66
2021/08/19 13:01:22;;;;;;;2.00;1.80;;;;;;;;;;5096092;28;20040;-66
2021/08/19 13:03:48;;;;;;;2.35;2.13;;;;;;;;;;5101782;28;20043;-66
2021/08/19 13:06:13;;;;;;;2.05;1.95;;;;;;;;;;5103104;28;20043;-66
2021/08/19 13:08:39;;;;;;;3.97;2.00;;;;;;;;;;5103060;28;20024;-66
2021/08/19 13:11:04;;;;;;;2.00;1.90;;;;;;;;;;5101600;28;20036;-66
2021/08/19 13:13:30;;;;;;;2.00;1.90;;;;;;;;;;5098173;28;20094;-62
2021/08/19 13:15:56;;;;;;;4.60;2.10;;;;;;;;;;5093409;28;20040;-62
2021/08/19 13:18:21;;;;;;;2.15;2.05;;;;;;;;;;5093107;28;20031;-62
2021/08/19 13:20:47;;;;;;;2.08;1.98;;;;;;;;;;5092965;28;20496;-61
2021/08/19 13:23:13;;;;;;;2.22;2.00;;;;;;;;;;5093203;28;20031;-62
2021/08/19 13:25:41;;;;;;;2.55;2.03;;;;;;;;;;5098050;28;20057;-62
2021/08/19 13:28:06;;;;;;;2.60;2.40;;;;;;;;;;5112350;28;20040;-62
2021/08/19 13:30:32;;;;;;;2.67;2.10;;;;;;;;;;5113221;28;20444;-62
2021/08/19 13:32:58;;;;;;;1.75;1.65;;;;;;;;;;5113400;28;20063;-61
2021/08/19 13:35:24;;;;;;;2.70;1.98;;;;;;;;;;5113690;28;20046;-61
2021/08/19 13:37:49;;;;;;;2.83;2.25;;;;;;;;;;5113318;28;20038;-62
2021/08/19 13:40:15;;;;;;;3.83;2.13;;;;;;;;;;5113323;28;20130;-62
2021/08/19 13:42:41;;;;;;;3.60;1.80;;;;;;;;;;5112986;28;20038;-61
2021/08/19 13:45:07;;;;;;;2.05;1.90;;;;;;;;;;5113084;28;20039;-61
2021/08/19 13:47:32;;;;;;;2.05;1.85;;;;;;;;;;5114601;28;20024;-62
2021/08/19 13:49:58;;;;;;;2.90;2.08;;;;;;;;;;5117117;28;20032;-62
2021/08/19 13:52:23;;;;;;;2.58;1.63;;;;;;;;;;5117020;28;20157;-62
2021/08/19 13:54:48;;;;;;;2.20;2.00;;;;;;;;;;5116791;28;20098;-62
2021/08/19 13:57:14;;;;;;;1.73;1.63;;;;;;;;;;5116807;28;20032;-62
2021/08/19 13:59:40;;;;;;;1.80;1.70;;;;;;;;;;5116671;28;20039;-62
2021/08/19 14:02:05;;;;;;;1.75;1.65;;;;;;;;;;5111819;28;20078;-62
2021/08/19 14:04:31;;;;;;;1.70;1.60;;;;;;;;;;5098790;28;20038;-61
2021/08/19 14:06:56;;;;;;;1.50;1.40;;;;;;;;;;5108181;28;20059;-61
2021/08/19 14:09:22;;;;;;;1.50;1.40;;;;;;;;;;5116559;28;20063;-62
2021/08/19 14:11:47;;;;;;;1.48;1.38;;;;;;;;;;5098540;28;20023;-62
2021/08/19 14:14:14;;;;;;;1.25;1.15;;;;;;;;;;5116486;28;20442;-62
2021/08/19 14:16:41;;;;;;;1.77;1.67;;;;;;;;;;5116452;28;20102;-62
2021/08/19 14:19:07;;;;;;;1.88;1.45;;;;;;;;;;5098326;28;20457;-62
2021/08/19 14:21:32;;;;;;;2.55;1.65;;;;;;;;;;5115359;28;20051;-62
2021/08/19 14:23:59;;;;;;;3.10;1.70;;;;;;;;;;5116065;28;20093;-62
2021/08/19 14:26:24;;;;;;;2.08;1.35;;;;;;;;;;5116306;28;20039;-62
2021/08/19 14:28:50;;;;;;;1.67;1.58;;;;;;;;;;5116186;28;20558;-62
2021/08/19 14:31:16;;;;;;;1.80;1.50;;;;;;;;;;5116453;28;20039;-62
2021/08/19 14:33:41;;;;;;;2.80;1.50;;;;;;;;;;5116353;28;20032;-62
2021/08/19 14:36:07;;;;;;;1.58;1.48;;;;;;;;;;5106659;28;20525;-62
2021/08/19 14:38:32;;;;;;;1.55;1.45;;;;;;;;;;5110098;28;20173;-62
2021/08/19 14:40:58;;;;;;;1.50;1.45;;;;;;;;;;5096852;28;20035;-62